Latest Weather Observations for Darwin Airport

IDD60901

Issued at 4:41 pm CST Monday 26 September 2022 (issued every 10 minutes, with the page automatically refreshed every 10 minutes)

About weather observations | Map of Darwin area stations | Latest observations for Darwin area | Other Formats
Station Details ID: 014015 Name: DARWIN AIRPORT Lat: -12.42 Lon: 130.89 Height: 30.4 m
Data from the previous 72 hours. | See also: Recent months at Darwin Airport
Date/Time
CST
Temp
°C
App
Temp
°C
Dew
Point
°C
Rel
Hum
%
Delta-T
°C
Wind Press
QNH
hPa
Press
MSL
hPa
Rain since
9am
mm
Dir  Spd
km/h
Gust
km/h
Spd
kts
Gust
kts
26/04:30pm 34.5 33.7 18.5 38 10.5 NNW 20 26 11 14 1006.7 1006.5 0.0
26/04:00pm 34.2 33.3 19.1 41 9.9 NNW 22 33 12 18 1006.7 1006.5 0.0
26/03:30pm 34.6 34.8 20.6 44 9.4 NNW 20 30 11 16 1006.8 1006.6 0.0
26/03:00pm 34.3 34.7 21.0 45 9.0 NNW 20 26 11 14 1007.2 1007.0 0.0
26/02:30pm 33.9 33.9 21.0 47 8.7 NNW 22 32 12 17 1007.5 1007.3 0.0
26/02:00pm 34.0 34.4 21.8 49 8.3 NNW 22 28 12 15 1007.9 1007.7 0.0
26/01:30pm 33.4 34.1 21.2 48 8.2 NNW 19 26 10 14 1008.4 1008.2 0.0
26/01:00pm 33.4 35.2 21.9 51 7.8 NNW 15 22 8 12 1008.9 1008.7 0.0
26/12:30pm 32.7 34.1 21.9 53 7.4 NNW 17 26 9 14 1009.4 1009.2 0.0
26/12:00pm 32.8 34.3 22.0 53 7.4 N 17 24 9 13 1009.8 1009.6 0.0
26/11:30am 32.8 33.8 21.0 50 7.9 N 17 26 9 14 1010.2 1009.9 0.0
26/11:00am 33.1 35.3 21.9 51 7.6 NNE 13 19 7 10 1010.6 1010.4 0.0
26/10:30am 31.9 33.8 20.5 51 7.6 NNE 11 20 6 11 1010.8 1010.6 0.0
26/10:00am 31.9 34.4 21.7 54 6.9 NNE 11 20 6 11 1010.9 1010.7 0.0
26/09:30am 30.5 33.6 22.1 61 5.7 NE 9 17 5 9 1011.1 1010.9 0.0
26/09:00am 29.4 33.9 23.6 71 4.0 NE 6 9 3 5 1011.2 1011.0 2.4
26/08:30am 28.8 34.0 24.8 79 2.8 ENE 6 9 3 5 1011.0 1010.8 2.4
26/08:00am 27.6 32.6 24.8 85 2.0 E 7 9 4 5 1010.8 1010.6 2.4
26/07:30am 26.1 31.1 24.5 91 1.1 E 6 7 3 4 1010.5 1010.3 2.4
26/07:00am 25.0 29.1 24.0 94 0.7 ENE 9 9 5 5 1010.3 1010.1 2.4
26/06:30am 25.0 29.7 24.0 94 0.7 E 6 7 3 4 1009.7 1009.5 2.4
26/06:00am 25.2 29.7 24.0 93 0.8 E 7 7 4 4 1009.1 1008.9 2.4
26/05:30am 25.5 30.2 24.3 93 0.8 ESE 7 7 4 4 1008.7 1008.5 2.4
26/05:00am 25.5 30.3 24.1 92 1.0 SE 6 7 3 4 1008.5 1008.3 2.4
26/04:30am 25.8 30.7 24.4 92 1.0 SE 6 6 3 3 1008.1 1007.9 2.4
26/04:00am 26.1 31.1 24.5 91 1.1 SE 6 9 3 5 1008.2 1008.0 2.4
26/03:30am 26.3 31.4 24.7 91 1.1 SSW 6 6 3 3 1008.3 1008.1 2.4
26/03:00am 26.5 31.5 24.5 89 1.4 SSW 6 7 3 4 1008.5 1008.3 2.4
26/02:30am 26.7 31.7 24.5 88 1.5 SW 6 6 3 3 1008.9 1008.7 2.4
26/02:00am 27.0 32.1 24.6 87 1.7 SW 6 7 3 4 1009.0 1008.8 2.4
26/01:30am 27.4 32.3 24.7 85 1.9 SW 7 9 4 5 1009.4 1009.2 2.4
26/01:00am 27.6 32.6 24.8 85 2.0 SW 7 9 4 5 1009.8 1009.6 2.4
26/12:30am 27.7 32.6 24.7 84 2.1 WSW 7 11 4 6 1010.0 1009.8 2.4
26/12:00am 27.8 32.9 24.6 83 2.2 W 6 9 3 5 1010.2 1009.9 2.4
 
Date/Time
CST
Temp
°C
App
Temp
°C
Dew
Point
°C
Rel
Hum
%
Delta-T
°C
Wind Press
QNH
hPa
Press
MSL
hPa
Rain since
9am
mm
Dir  Spd
km/h
Gust
km/h
Spd
kts
Gust
kts
25/11:30pm 27.9 32.7 24.5 82 2.4 W 7 9 4 5 1010.5 1010.3 2.4
25/11:00pm 28.0 32.8 24.4 81 2.5 W 7 7 4 4 1010.3 1010.1 2.4
25/10:30pm 28.1 32.9 24.5 81 2.5 W 7 9 4 5 1010.2 1009.9 2.4
25/10:00pm 28.2 32.5 24.2 79 2.8 W 9 11 5 6 1009.9 1009.7 2.4
25/09:30pm 28.3 32.8 23.9 77 3.0 W 7 11 4 6 1009.7 1009.5 2.4
25/09:00pm 28.6 32.7 23.9 75 3.3 W 9 15 5 8 1009.3 1009.1 2.4
25/08:30pm 28.8 33.2 24.4 77 3.1 W 9 13 5 7 1009.1 1008.9 2.4
25/08:00pm 28.9 32.8 24.2 76 3.3 W 11 15 6 8 1008.7 1008.5 2.4
25/07:30pm 29.1 33.1 24.4 76 3.3 W 11 15 6 8 1008.3 1008.1 2.4
25/07:00pm 29.5 32.9 24.1 72 3.7 W 13 19 7 10 1008.1 1007.9 2.4
25/06:30pm 30.2 32.9 24.1 70 4.2 WNW 17 22 9 12 1007.8 1007.6 2.4
25/06:00pm 30.5 32.9 24.2 69 4.4 WNW 19 24 10 13 1007.6 1007.4 2.4
25/05:30pm 31.3 33.3 23.9 64 5.2 WNW 20 24 11 13 1007.4 1007.2 2.4
25/05:00pm 31.6 31.9 22.3 57 6.3 WNW 24 28 13 15 1007.1 1006.9 2.4
25/04:30pm 31.3 31.7 23.7 64 5.3 WNW 28 33 15 18 1007.2 1007.0 2.4
25/04:00pm 32.6 33.4 24.4 62 5.8 WNW 28 35 15 19 1007.3 1007.1 2.4
25/03:30pm 32.2 33.4 24.5 64 5.4 NW 26 35 14 19 1007.5 1007.3 2.4
25/03:00pm 32.0 32.2 23.5 60 5.9 NW 28 35 15 19 1007.8 1007.6 2.4
25/02:30pm 32.5 34.5 24.5 62 5.6 NW 22 30 12 16 1008.1 1007.9 2.4
25/02:00pm 31.7 33.4 24.6 66 5.0 NW 24 30 13 16 1008.7 1008.5 2.4
25/01:30pm 32.2 34.4 24.3 63 5.5 NW 20 28 11 15 1009.2 1009.0 2.4
25/01:00pm 32.0 34.4 24.6 65 5.2 NW 20 30 11 16 1009.9 1009.7 2.4
25/12:30pm 32.0 34.7 24.8 65 5.1 NW 19 26 10 14 1010.6 1010.4 2.4
25/12:00pm 31.4 34.9 25.5 71 4.2 NW 17 22 9 12 1011.1 1010.9 2.4
25/11:30am 30.1 33.7 25.6 77 3.2 NW 17 22 9 12 1011.5 1011.3 2.4
25/11:00am 29.3 33.6 26.1 83 2.3 NW 15 22 8 12 1011.9 1011.7 2.4
25/10:30am 28.5 32.6 25.7 85 2.0 NNW 15 20 8 11 1012.2 1012.0 1.6
25/10:00am 29.6 33.4 24.7 75 3.4 NW 13 19 7 10 1012.3 1012.1 0.0
25/09:30am 29.6 33.3 24.5 74 3.6 NNW 13 19 7 10 1012.3 1012.1 0.0
25/09:00am 29.5 32.9 24.1 72 3.8 NW 13 19 7 10 1012.2 1012.0 0.0
25/08:30am 29.2 33.2 25.0 78 2.9 NNW 13 17 7 9 1011.9 1011.7 0.0
25/08:00am 28.9 33.8 24.7 78 2.9 NW 7 13 4 7 1011.5 1011.3 0.0
25/07:30am 28.8 33.7 25.2 81 2.5 NNW 9 11 5 6 1011.1 1010.9 0.0
25/07:20am 28.4 33.6 24.8 81 2.5 NNW 6 9 3 5 1010.9 1010.7 0.0
25/07:00am 28.2 33.4 24.8 82 2.4 NNW 6 7 3 4 1010.6 1010.4 0.0
25/06:30am 28.0 32.9 24.6 82 2.4 NNW 7 9 4 5 1010.2 1009.9 0.0
25/06:00am 28.1 33.0 24.7 82 2.4 NNW 7 9 4 5 1009.8 1009.6 0.0
25/05:30am 27.9 32.5 24.7 83 2.2 NNW 9 11 5 6 1009.7 1009.5 0.0
25/05:00am 27.6 32.1 24.6 84 2.1 NNW 9 9 5 5 1009.4 1009.2 0.0
25/04:30am 27.4 32.8 24.5 84 2.0 NNW 4 6 2 3 1009.1 1008.9 0.0
25/04:00am 28.2 33.1 24.6 81 2.5 NW 7 11 4 6 1009.1 1008.9 0.0
25/03:30am 27.5 32.4 24.4 83 2.2 WNW 6 9 3 5 1009.1 1008.9 0.0
25/03:00am 28.2 32.7 24.6 81 2.5 NW 9 15 5 8 1009.2 1009.0 0.0
25/02:30am 27.6 32.9 24.4 83 2.2 NNW 4 6 2 3 1009.2 1009.0 0.0
25/02:00am 28.3 33.1 25.1 83 2.2 NNW 9 13 5 7 1009.5 1009.3 0.0
25/01:30am 28.3 32.6 24.3 79 2.8 WNW 9 13 5 7 1009.6 1009.4 0.0
25/01:00am 28.5 33.4 24.3 78 2.9 W 6 7 3 4 1009.8 1009.6 0.0
25/12:30am 28.6 33.2 24.2 77 3.1 W 7 9 4 5 1010.3 1010.1 0.0
25/12:00am 28.7 33.0 24.3 77 3.1 W 9 11 5 6 1010.5 1010.3 0.0
 
Date/Time
CST
Temp
°C
App
Temp
°C
Dew
Point
°C
Rel
Hum
%
Delta-T
°C
Wind Press
QNH
hPa
Press
MSL
hPa
Rain since
9am
mm
Dir  Spd
km/h
Gust
km/h
Spd
kts
Gust
kts
24/11:30pm 28.8 33.2 24.4 77 3.1 W 9 11 5 6 1010.7 1010.5 0.0
24/11:00pm 28.9 33.2 24.2 76 3.3 WNW 9 13 5 7 1010.5 1010.3 0.0
24/10:30pm 29.1 33.0 24.2 75 3.4 W 11 15 6 8 1010.2 1009.9 0.0
24/10:00pm 29.0 33.5 24.6 77 3.1 W 9 15 5 8 1009.6 1009.4 0.0
24/09:30pm 29.0 32.9 24.3 76 3.3 W 11 17 6 9 1009.5 1009.3 0.0
24/09:00pm 29.1 32.5 24.7 77 3.1 W 15 22 8 12 1009.2 1009.0 0.0
24/08:30pm 29.3 32.9 24.4 75 3.4 WNW 13 20 7 11 1009.0 1008.8 0.0
24/08:00pm 29.5 32.7 24.4 74 3.6 W 15 20 8 11 1008.8 1008.6 0.0
24/07:30pm 29.7 32.8 24.1 72 3.9 W 15 20 8 11 1008.2 1008.0 0.0
24/07:00pm 30.2 33.1 23.9 69 4.4 WNW 15 19 8 10 1007.7 1007.5 0.0
24/06:30pm 30.8 33.9 23.5 65 5.1 WNW 13 17 7 9 1007.2 1007.0 0.0
24/06:00pm 31.7 32.9 22.1 56 6.5 WNW 19 24 10 13 1007.2 1007.0 0.0
24/05:30pm 31.8 33.3 23.1 60 6.0 WNW 20 26 11 14 1006.9 1006.7 0.0
24/05:00pm 32.3 33.6 22.7 57 6.6 WNW 20 26 11 14 1006.8 1006.6 0.0
24/04:30pm 33.0 34.3 22.7 54 7.1 NW 20 28 11 15 1006.6 1006.4 0.0
24/04:00pm 33.6 35.5 22.7 53 7.5 NW 17 22 9 12 1006.6 1006.4 0.0
24/03:30pm 33.0 34.2 22.1 52 7.5 WNW 19 24 10 13 1006.7 1006.5 0.0
24/03:00pm 33.3 35.0 23.0 54 7.1 NW 19 24 10 13 1007.3 1007.1 0.0
24/02:30pm 33.7 35.6 22.8 53 7.5 NW 17 22 9 12 1007.5 1007.3 0.0
24/02:00pm 33.0 34.7 23.0 55 6.9 NW 19 26 10 14 1008.1 1007.9 0.0
24/01:30pm 33.1 35.2 23.1 55 6.9 NW 17 22 9 12 1008.7 1008.5 0.0
24/01:00pm 32.0 33.7 23.0 59 6.2 NW 19 24 10 13 1009.4 1009.2 0.0
24/12:30pm 32.7 35.5 23.6 58 6.3 NW 15 24 8 13 1010.0 1009.8 0.0
24/12:00pm 32.3 35.7 23.3 59 6.2 NW 11 17 6 9 1010.5 1010.3 0.0
24/11:30am 31.8 35.5 23.9 63 5.5 NNW 11 19 6 10 1011.1 1010.9 0.0
24/11:00am 31.7 35.8 24.6 66 5.0 NNW 11 17 6 9 1011.5 1011.3 0.0
24/10:30am 29.9 33.4 23.6 69 4.4 NW 11 17 6 9 1011.9 1011.7 0.0
24/10:00am 30.4 34.3 23.6 67 4.7 W 9 13 5 7 1012.0 1011.8 0.0
24/09:30am 29.7 33.6 23.6 69 4.2 WNW 9 13 5 7 1011.9 1011.7 0.0
24/09:00am 29.7 34.5 24.1 72 3.9 S 6 9 3 5 1011.8 1011.6 0.0
24/08:30am 29.4 34.9 24.0 72 3.7 SE 2 6 1 3 1011.5 1011.3 0.0
24/08:00am 28.9 34.2 24.9 79 2.8 ESE 6 6 3 3 1011.1 1010.9 0.0
24/07:30am 27.8 33.6 24.6 83 2.2 NW 2 4 1 2 1010.9 1010.7 0.0
24/07:00am 26.7 32.8 24.4 87 1.6 CALM 0 0 0 0 1010.5 1010.3 0.0
24/06:30am 26.3 31.5 24.2 88 1.5 NW 4 6 2 3 1010.3 1010.1 0.0
24/06:00am 26.8 32.4 24.3 86 1.7 NW 2 4 1 2 1009.7 1009.5 0.0
24/05:30am 27.3 32.2 24.4 84 2.0 NW 6 6 3 3 1009.2 1009.0 0.0
24/05:00am 27.5 32.6 24.6 84 2.0 NNW 6 9 3 5 1008.8 1008.6 0.0
24/04:30am 27.5 32.8 24.9 86 1.8 N 6 9 3 5 1008.7 1008.5 0.0
24/04:00am 27.4 32.4 24.8 86 1.8 N 7 9 4 5 1008.5 1008.3 0.0
24/03:48am 27.4 32.0 24.8 86 1.8 N 9 13 5 7 1008.5 1008.3 0.0
24/03:36am 27.4 31.6 24.8 86 1.8 N 11 15 6 8 1008.6 1008.4 0.0
24/03:30am 27.4 31.6 24.8 86 1.8 N 11 15 6 8 1008.5 1008.3 0.0
24/03:00am 27.2 31.4 24.8 87 1.7 N 11 15 6 8 1008.5 1008.3 0.0
24/02:30am 27.2 32.0 24.5 85 1.9 NNW 7 11 4 6 1008.8 1008.6 0.0
24/02:00am 27.8 32.8 24.8 84 2.1 NNW 7 9 4 5 1009.2 1009.0 0.0
24/01:30am 27.8 32.8 24.8 84 2.1 NNW 7 9 4 5 1009.3 1009.1 0.0
24/01:00am 28.4 33.6 24.8 81 2.5 NNW 6 9 3 5 1009.7 1009.5 0.0
24/12:30am 28.5 33.7 25.1 82 2.4 WNW 7 9 4 5 1010.0 1009.8 0.0
24/12:00am 28.5 33.6 24.9 81 2.5 WNW 7 7 4 4 1010.4 1010.2 0.0
 
Date/Time
CST
Temp
°C
App
Temp
°C
Dew
Point
°C
Rel
Hum
%
Delta-T
°C
Wind Press
QNH
hPa
Press
MSL
hPa
Rain since
9am
mm
Dir  Spd
km/h
Gust
km/h
Spd
kts
Gust
kts
23/11:30pm 28.7 33.8 24.9 80 2.7 WNW 7 9 4 5 1010.7 1010.5 0.0
23/11:00pm 28.7 33.6 24.7 79 2.8 WNW 7 11 4 6 1010.5 1010.3 0.0
23/10:30pm 28.7 33.3 24.7 79 2.8 W 9 13 5 7 1010.6 1010.4 0.0
23/10:00pm 28.7 33.6 24.7 79 2.8 WNW 7 13 4 7 1010.4 1010.2 0.0
23/09:30pm 28.7 33.0 24.3 77 3.1 W 9 13 5 7 1010.2 1009.9 0.0
23/09:00pm 28.9 32.8 24.2 76 3.3 WSW 11 13 6 7 1010.0 1009.8 0.0
23/08:30pm 29.0 32.6 24.3 76 3.3 SW 13 15 7 8 1010.0 1009.8 0.0
23/08:00pm 29.0 32.6 24.3 76 3.3 WSW 13 22 7 12 1009.5 1009.3 0.0
23/07:30pm 29.2 33.1 24.3 75 3.4 SW 11 15 6 8 1009.1 1008.9 0.0
23/07:00pm 29.3 32.8 24.2 74 3.5 WSW 13 17 7 9 1008.7 1008.5 0.0
23/06:30pm 29.5 32.1 23.9 72 3.9 WSW 17 20 9 11 1008.4 1008.2 0.0
23/06:00pm 29.8 32.5 24.2 72 3.9 WSW 17 20 9 11 1008.5 1008.3 0.0
23/05:30pm 30.4 32.2 23.3 66 4.9 WSW 19 26 10 14 1008.4 1008.2 0.0
23/05:00pm 30.9 32.2 23.3 64 5.2 WNW 22 30 12 16 1008.2 1008.0 0.0

Latest Capital City Observations: Canberra | Sydney | Melbourne | Brisbane | Adelaide | Perth | Hobart | Darwin

Other formats

Comma delimited format used in spreadsheet applications
http://www.bom.gov.au/fwo/IDD60901/IDD60901.94120.axf

JavaScript Object Notation format (JSON) in row-major order
http://www.bom.gov.au/fwo/IDD60901/IDD60901.94120.json

Data quality

Most of these data are generated automatically and are frequently updated. Quality checks on data are not normally performed. It is possible for incorrect values to appear. Refer to information at About Latest Weather Observations and please check the disclaimer before using these data.